Lake George, NY

6:00 PM EST on February 20, 2019 (GMT -0500)
Assembly Point | | Change Station
Active Advisory: Winter Weather Advisory

Elev 344 ft 43.46 °N, 73.65 °W | Updated 19 seconds ago

Overcast
Overcast
24.4 °F
Feels Like 24 °F
N
0
Wind Variable Wind from SW
Gusts 0.0 mph

Today
High -- | Low -- °F
--% Chance of Precip.
Yesterday
High -- | Low -- °F
Precip. -- in
Pressure 30.38 in
Visibility 10.0 miles
Clouds Mostly Cloudy 4300 ft
Mostly Cloudy 5500 ft
Overcast 7000 ft
Windchill 24 °F
Dew Point 15 °F
Humidity 66%
Rainfall 0.00 in
Snow Depth Not available.
6:46 AM 5:31 PM
Full, 97% visible
METAR KGFL 202253Z AUTO 00000KT 10SM BKN043 BKN055 OVC070 M04/M10 A3034 RMK AO2 SLP286 T10391100
Pressure 30.38 in
Visibility 10.0 miles
Clouds Mostly Cloudy 4300 ft
Mostly Cloudy 5500 ft
Overcast 7000 ft
Windchill 24 °F
Dew Point 15 °F
Humidity 66%
Rainfall 0.00 in
Snow Depth Not available.
6:46 AM 5:31 PM
Full, 97% visible
METAR KGFL 202253Z AUTO 00000KT 10SM BKN043 BKN055 OVC070 M04/M10 A3034 RMK AO2 SLP286 T10391100

Get Your Daily Forecast Email!

Thanks for signing up!

Be on the lookout for a verification email in your inbox.

You'll start receiving severe weather alerts in your inbox..

×

10-Day Weather Forecast

Almanac

Astronomy

Feb. 20, 2019 Rise Set
Actual Time
Civil Twilight
Nautical Twilight
Astronomical Twilight
Moon
Length of Visible Light
Length of Day
Tomorrow will be .
, % of the Moon is Illuminated

Today's Extremes

State Highs State Lows

Community

WunderPhotos

Category 6

Welcome to Category 6. This is the collective home for Weather Underground's featured writeups by Dr. Jeff Masters (right), Bob Henson (left), Chris Burt, and other regular contributors.

Nearby

Air Quality

  Air Quality AQ Index Pollutant
Not available.

Snow Depth

Station Depth Elevation

Earthquake Activity

City Distance Mag. Time & Date
Minimum magnitude displayed is 2.5.

Coastal Water Temperatures

Place Temperature

Stations

Nearby Weather Stations

Station Location Temp. Windchill Dew Point Humidity Wind Precip. Elev Updated Type
                   

Watches & Warnings

Winter Weather Advisory
Issued: 3:38 PM EST Feb. 20, 2019 – National Weather Service

... Winter Weather Advisory remains in effect from 7 PM this
evening to 10 am EST Thursday...

* what... mixed precipitation expected. Total snow accumulations
of 1 to 3 inches and ice accumulations of up to one tenth of
an inch expected.

* Where... southern Vermont, the southern Adirondacks and the Lake
George Saratoga region of eastern New York.

* When... from 7 PM this evening to 10 am EST Thursday.

* Additional details... plan on slippery Road conditions. The
hazardous conditions could impact the Thursday morning commute.

Precautionary/preparedness actions...

A Winter Weather Advisory means that periods of snow, sleet or
freezing rain will cause travel difficulties. Expect slippery
roads and limited visibilities, and use caution while driving.